createdAt,value
2019-04-25T00:01:17.329Z,97458.02
2019-04-25T00:03:46.905Z,97464.50
2019-04-25T00:06:17.682Z,97458.80
2019-04-25T00:08:49.136Z,97457.16
2019-04-25T00:11:19.370Z,97470.20
2019-04-25T00:13:48.742Z,97470.62
2019-04-25T00:16:21.622Z,97464.20
2019-04-25T00:18:54.693Z,97463.95
2019-04-25T00:21:33.865Z,97466.69
2019-04-25T00:24:08.574Z,97452.75
2019-04-25T00:26:46.306Z,97455.14
2019-04-25T00:29:16.834Z,97451.67
2019-04-25T00:31:46.167Z,97454.09
2019-04-25T00:34:15.809Z,97453.28
2019-04-25T00:36:45.610Z,97450.60
2019-04-25T00:39:15.184Z,97443.36
2019-04-25T00:41:46.260Z,97445.47
2019-04-25T00:44:15.718Z,97453.78
2019-04-25T00:46:49.087Z,97458.91
2019-04-25T00:49:17.360Z,97461.88
2019-04-25T00:51:46.945Z,97474.20
2019-04-25T00:54:16.167Z,97471.71
2019-04-25T00:56:47.914Z,97472.20
2019-04-25T00:59:22.376Z,97464.66
2019-04-25T01:02:11.488Z,97459.30
2019-04-25T01:04:41.936Z,97466.83
2019-04-25T01:07:12.658Z,97466.33
2019-04-25T01:09:43.466Z,97464.92
2019-04-25T01:12:14.908Z,97466.41
2019-04-25T01:14:45.687Z,97470.56
2019-04-25T01:17:16.138Z,97471.30
2019-04-25T01:19:47.415Z,97460.00
2019-04-25T01:22:16.971Z,97466.92
2019-04-25T01:24:46.178Z,97469.92
2019-04-25T01:27:15.711Z,97466.09
2019-04-25T01:29:46.367Z,97462.55
2019-04-25T01:32:19.041Z,97468.52
2019-04-25T01:34:58.384Z,97467.94
2019-04-25T01:37:44.403Z,97469.33
2019-04-25T01:40:31.184Z,97473.98
2019-04-25T01:43:13.815Z,97474.64
2019-04-25T01:45:43.822Z,97476.31
2019-04-25T01:48:13.739Z,97477.17
2019-04-25T01:50:43.788Z,97471.59
2019-04-25T01:53:14.587Z,97473.98
2019-04-25T01:55:53.628Z,97472.88
2019-04-25T01:58:16.454Z,97471.24
2019-04-25T02:00:47.869Z,97479.59
2019-04-25T02:03:17.393Z,97483.78
2019-04-25T02:05:46.993Z,97488.88
2019-04-25T02:08:17.416Z,97482.13
2019-04-25T02:10:50.765Z,97480.80
2019-04-25T02:13:21.219Z,97487.05
2019-04-25T02:15:50.638Z,97486.74
2019-04-25T02:18:28.054Z,97488.36
2019-04-25T02:21:04.370Z,97485.22
2019-04-25T02:23:34.105Z,97492.44
2019-04-25T02:26:15.235Z,97481.11
2019-04-25T02:28:35.518Z,97490.05
2019-04-25T02:31:08.682Z,97482.34
2019-04-25T02:33:36.358Z,97481.13
2019-04-25T02:36:08.590Z,97481.41
2019-04-25T02:38:37.755Z,97481.25
2019-04-25T02:41:09.155Z,97481.63
2019-04-25T02:43:38.734Z,97471.56
2019-04-25T02:46:31.631Z,97461.88
2019-04-25T02:49:35.892Z,97453.59
2019-04-25T02:52:13.096Z,97446.54
2019-04-25T02:54:44.998Z,97454.38
2019-04-25T02:57:14.874Z,97442.98
2019-04-25T02:59:45.142Z,97449.53
2019-04-25T03:02:15.666Z,97452.48
2019-04-25T03:04:44.967Z,97456.32
2019-04-25T03:07:17.577Z,97459.23
2019-04-25T03:09:46.539Z,97462.58
2019-04-25T03:12:29.824Z,97460.38
2019-04-25T03:14:47.328Z,97459.24
2019-04-25T03:17:16.577Z,97455.98
2019-04-25T03:20:11.977Z,97453.56
2019-04-25T03:22:44.516Z,97453.80
2019-04-25T03:25:17.323Z,97460.04
2019-04-25T03:27:45.183Z,97462.00
2019-04-25T03:30:17.923Z,97470.50
2019-04-25T03:32:45.930Z,97474.90
2019-04-25T03:35:15.134Z,97474.86
2019-04-25T03:37:45.347Z,97472.09
2019-04-25T03:40:14.663Z,97476.67
2019-04-25T03:42:44.200Z,97481.62
2019-04-25T03:45:14.663Z,97483.43
2019-04-25T03:47:44.041Z,97491.34
2019-04-25T03:50:14.797Z,97498.53
2019-04-25T03:52:44.594Z,97506.67
2019-04-25T03:55:14.482Z,97508.48
2019-04-25T03:57:44.383Z,97511.11
2019-04-25T04:00:15.331Z,97518.11
2019-04-25T04:02:46.929Z,97518.42
2019-04-25T04:05:16.180Z,97528.51
2019-04-25T04:07:46.351Z,97533.88
2019-04-25T04:10:15.597Z,97533.52
2019-04-25T04:12:44.810Z,97529.08
2019-04-25T04:15:15.800Z,97530.81
2019-04-25T04:17:57.235Z,97535.94
2019-04-25T04:20:44.110Z,97538.98
2019-04-25T04:23:18.341Z,97542.90
2019-04-25T04:25:48.063Z,97540.26
2019-04-25T04:28:18.811Z,97544.63
2019-04-25T04:30:48.042Z,97550.67
2019-04-25T04:33:30.011Z,97556.38
2019-04-25T04:35:48.598Z,97552.71
2019-04-25T04:38:19.170Z,97568.23
2019-04-25T04:40:48.893Z,97579.27
2019-04-25T04:43:18.423Z,97584.53
2019-04-25T04:45:48.805Z,97583.02
2019-04-25T04:48:18.837Z,97588.62
2019-04-25T04:50:48.172Z,97592.83
2019-04-25T04:53:17.390Z,97587.94
2019-04-25T04:55:50.036Z,97589.62
2019-04-25T04:58:26.597Z,97587.64
2019-04-25T05:00:58.292Z,97590.73
2019-04-25T05:03:49.643Z,97591.11
2019-04-25T05:06:25.158Z,97587.73
2019-04-25T05:08:58.322Z,97590.08
2019-04-25T05:11:27.869Z,97588.80
2019-04-25T05:13:59.430Z,97598.74
2019-04-25T05:16:29.672Z,97606.16
2019-04-25T05:18:59.740Z,97616.09
2019-04-25T05:21:31.476Z,97613.48
2019-04-25T05:24:00.705Z,97612.33
2019-04-25T05:26:29.937Z,97613.22
2019-04-25T05:29:00.231Z,97609.48
2019-04-25T05:31:41.101Z,97613.56
2019-04-25T05:34:14.551Z,97606.78
2019-04-25T05:36:43.892Z,97611.41
2019-04-25T05:39:16.338Z,97610.59
2019-04-25T05:42:09.566Z,97613.27
2019-04-25T05:44:40.374Z,97611.22
2019-04-25T05:47:09.605Z,97607.63
2019-04-25T05:49:38.806Z,97609.02
2019-04-25T05:52:08.302Z,97605.48
2019-04-25T05:54:37.526Z,97601.30
2019-04-25T05:57:06.755Z,97609.08
2019-04-25T05:59:35.991Z,97611.55
2019-04-25T06:02:05.356Z,97604.28
2019-04-25T06:04:35.261Z,97615.46
2019-04-25T06:07:06.148Z,97619.87
2019-04-25T06:09:54.701Z,97609.53
2019-04-25T06:12:30.773Z,97610.98
2019-04-25T06:15:01.365Z,97608.73
2019-04-25T06:17:38.441Z,97613.97
2019-04-25T06:20:10.152Z,97619.38
2019-04-25T06:22:59.259Z,97616.47
2019-04-25T06:25:34.775Z,97615.86
2019-04-25T06:28:03.772Z,97617.26
2019-04-25T06:30:33.294Z,97623.41
2019-04-25T06:33:05.392Z,97618.10
2019-04-25T06:35:35.969Z,97627.95
2019-04-25T06:38:05.526Z,97621.25
2019-04-25T06:40:35.016Z,97610.73
2019-04-25T06:43:04.549Z,97612.17
2019-04-25T06:45:55.657Z,97616.00
2019-04-25T06:48:38.218Z,97617.41
2019-04-25T06:51:07.872Z,97622.06
2019-04-25T06:53:38.254Z,97631.45
2019-04-25T06:56:07.480Z,97635.73
2019-04-25T06:58:37.199Z,97639.80
2019-04-25T07:01:08.980Z,97642.22
2019-04-25T07:03:38.349Z,97631.24
2019-04-25T07:06:10.077Z,97631.78
2019-04-25T07:08:39.826Z,97627.19
2019-04-25T07:11:11.316Z,97624.77
2019-04-25T07:13:40.951Z,97618.85
2019-04-25T07:16:11.373Z,97625.30
2019-04-25T07:18:40.969Z,97623.64
2019-04-25T07:21:11.418Z,97621.36
2019-04-25T07:23:40.686Z,97613.74
2019-04-25T07:26:16.856Z,97619.92
2019-04-25T07:29:20.413Z,97615.34
2019-04-25T07:32:14.451Z,97622.48
2019-04-25T07:34:43.958Z,97619.95
2019-04-25T07:37:13.320Z,97609.77
2019-04-25T07:39:44.196Z,97609.68
2019-04-25T07:42:14.148Z,97612.45
2019-04-25T07:44:51.651Z,97616.53
2019-04-25T07:47:17.341Z,97608.52
2019-04-25T07:49:46.575Z,97606.07
2019-04-25T07:52:15.824Z,97600.70
2019-04-25T07:54:45.377Z,97597.53
2019-04-25T07:57:14.907Z,97601.76
2019-04-25T07:59:44.165Z,97598.16
2019-04-25T08:02:13.708Z,97598.48
2019-04-25T08:04:44.199Z,97598.73
2019-04-25T08:07:14.252Z,97594.64
2019-04-25T08:09:44.361Z,97601.27
2019-04-25T08:12:13.710Z,97594.49
2019-04-25T08:14:54.890Z,97605.61
2019-04-25T08:17:41.722Z,97593.66
2019-04-25T08:20:15.243Z,97587.58
2019-04-25T08:22:55.675Z,97579.26
2019-04-25T08:25:18.286Z,97577.78
2019-04-25T08:27:47.513Z,97567.34
2019-04-25T08:30:16.758Z,97567.34
2019-04-25T08:32:46.660Z,97572.13
2019-04-25T08:35:16.177Z,97575.27
2019-04-25T08:37:45.834Z,97565.48
2019-04-25T08:40:16.003Z,97565.51
2019-04-25T08:42:45.245Z,97575.06
2019-04-25T08:45:14.996Z,97564.31
2019-04-25T08:47:44.207Z,97562.47
2019-04-25T08:50:42.825Z,97564.94
2019-04-25T08:53:15.283Z,97569.20
2019-04-25T08:56:07.811Z,97566.61
2019-04-25T08:59:07.969Z,97569.66
2019-04-25T09:01:48.253Z,97564.66
2019-04-25T09:04:25.917Z,97569.28
2019-04-25T09:06:55.447Z,97569.42
2019-04-25T09:09:24.766Z,97571.78
2019-04-25T09:11:54.462Z,97556.58
2019-04-25T09:14:24.741Z,97561.03
2019-04-25T09:16:53.970Z,97564.47
2019-04-25T09:19:24.148Z,97573.86
2019-04-25T09:21:53.514Z,97566.15
2019-04-25T09:24:24.417Z,97559.40
2019-04-25T09:26:54.120Z,97560.75
2019-04-25T09:29:23.580Z,97556.20
2019-04-25T09:31:53.755Z,97552.02
2019-04-25T09:34:23.906Z,97556.82
2019-04-25T09:36:55.446Z,97549.73
2019-04-25T09:39:46.995Z,97548.03
2019-04-25T09:42:16.567Z,97540.86
2019-04-25T09:45:10.556Z,97538.73
2019-04-25T09:47:41.301Z,97535.83
2019-04-25T09:50:16.426Z,97553.17
2019-04-25T09:52:47.043Z,97528.05
2019-04-25T09:55:29.958Z,97532.92
2019-04-25T09:58:24.106Z,97524.60
2019-04-25T10:00:57.497Z,97526.17
2019-04-25T10:03:26.851Z,97514.41
2019-04-25T10:05:58.386Z,97535.89
2019-04-25T10:08:27.649Z,97520.09
2019-04-25T10:10:57.086Z,97522.47
2019-04-25T10:13:28.579Z,97518.36
2019-04-25T10:16:07.241Z,97526.30
2019-04-25T10:18:39.370Z,97523.84
2019-04-25T10:21:14.311Z,97506.07
2019-04-25T10:23:45.361Z,97498.88
2019-04-25T10:26:16.131Z,97491.47
2019-04-25T10:28:47.548Z,97484.35
2019-04-25T10:31:16.828Z,97485.40
2019-04-25T10:33:47.007Z,97478.92
2019-04-25T10:36:16.722Z,97483.56
2019-04-25T10:39:02.304Z,97468.32
2019-04-25T10:41:19.441Z,97481.16
2019-04-25T10:43:50.470Z,97475.83
2019-04-25T10:46:21.780Z,97460.36
2019-04-25T10:48:54.103Z,97460.88
2019-04-25T10:51:23.982Z,97461.03
2019-04-25T10:53:55.028Z,97458.15
2019-04-25T10:56:24.441Z,97455.80
2019-04-25T10:58:54.992Z,97460.81
2019-04-25T11:01:24.644Z,97459.66
2019-04-25T11:04:17.970Z,97452.14
2019-04-25T11:06:49.322Z,97447.21
2019-04-25T11:09:27.320Z,97450.39
2019-04-25T11:11:58.251Z,97445.70
2019-04-25T11:14:31.568Z,97446.10
2019-04-25T11:17:01.714Z,97439.98
2019-04-25T11:19:31.125Z,97445.89
2019-04-25T11:22:00.363Z,97445.98
2019-04-25T11:24:34.625Z,97428.75
2019-04-25T11:27:05.569Z,97435.05
2019-04-25T11:29:34.815Z,97431.09
2019-04-25T11:32:05.453Z,97417.34
2019-04-25T11:34:34.797Z,97420.14
2019-04-25T11:37:05.907Z,97411.23
2019-04-25T11:39:40.474Z,97420.25
2019-04-25T11:42:16.732Z,97423.69
2019-04-25T11:44:48.065Z,97414.32
2019-04-25T11:47:17.802Z,97409.27
2019-04-25T11:49:47.846Z,97404.27
2019-04-25T11:52:27.308Z,97400.64
2019-04-25T11:54:50.088Z,97434.26
2019-04-25T11:57:24.475Z,97411.08
2019-04-25T12:02:24.004Z,97396.30
2019-04-25T12:04:57.298Z,97386.23
2019-04-25T12:07:26.994Z,97382.06
2019-04-25T12:09:56.225Z,97398.05
2019-04-25T12:12:25.459Z,97389.39
2019-04-25T12:14:55.385Z,97374.02
2019-04-25T12:17:26.610Z,97379.87
2019-04-25T12:19:57.499Z,97364.73
2019-04-25T12:22:26.806Z,97366.59
2019-04-25T12:24:56.371Z,97360.03
2019-04-25T12:27:25.825Z,97366.66
2019-04-25T12:29:55.060Z,97367.81
2019-04-25T12:32:26.857Z,97357.05
2019-04-25T12:34:56.173Z,97351.34
2019-04-25T12:37:25.469Z,97335.63
2019-04-25T12:39:54.723Z,97354.58
2019-04-25T12:42:24.288Z,97362.78
2019-04-25T12:45:04.187Z,97351.94
2019-04-25T12:47:34.409Z,97347.67
2019-04-25T12:50:05.217Z,97334.63
2019-04-25T12:52:34.466Z,97345.12
2019-04-25T12:55:04.238Z,97332.58
2019-04-25T12:57:33.443Z,97343.06
2019-04-25T13:00:04.167Z,97354.64
2019-04-25T13:02:36.260Z,97339.04
2019-04-25T13:05:07.327Z,97331.02
2019-04-25T13:07:37.878Z,97325.85
2019-04-25T13:10:08.131Z,97323.94
2019-04-25T13:12:39.953Z,97317.44
2019-04-25T13:15:09.848Z,97311.45
2019-04-25T13:17:39.486Z,97314.55
2019-04-25T13:20:09.896Z,97316.25
2019-04-25T13:22:39.273Z,97310.45
2019-04-25T13:25:11.013Z,97310.81
2019-04-25T13:27:49.463Z,97304.22
2019-04-25T13:30:41.328Z,97300.91
2019-04-25T13:33:35.329Z,97294.38
2019-04-25T13:36:10.991Z,97295.11
2019-04-25T13:38:40.289Z,97295.20
2019-04-25T13:41:09.505Z,97288.01
2019-04-25T13:43:38.901Z,97277.81
2019-04-25T13:46:10.809Z,97272.86
2019-04-25T13:48:41.158Z,97271.33
2019-04-25T13:51:10.371Z,97262.41
2019-04-25T13:53:43.586Z,97269.14
2019-04-25T13:56:13.368Z,97261.73
2019-04-25T13:58:44.166Z,97255.84
2019-04-25T14:01:17.325Z,97253.08
2019-04-25T14:03:46.631Z,97251.72
2019-04-25T14:06:21.266Z,97255.10
2019-04-25T14:08:50.481Z,97244.47
2019-04-25T14:11:20.571Z,97239.39
2019-04-25T14:13:50.793Z,97242.87
2019-04-25T14:16:43.373Z,97239.17
2019-04-25T14:19:34.886Z,97230.48
2019-04-25T14:22:04.934Z,97233.56
2019-04-25T14:24:35.789Z,97228.51
2019-04-25T14:27:05.239Z,97224.75
2019-04-25T14:29:34.796Z,97223.77
2019-04-25T14:32:07.816Z,97226.29
2019-04-25T14:34:38.180Z,97217.58
2019-04-25T14:37:07.731Z,97219.20
2019-04-25T14:39:36.987Z,97217.83
2019-04-25T14:42:06.412Z,97207.78
2019-04-25T14:44:35.672Z,97208.35
2019-04-25T14:47:05.851Z,97208.03
2019-04-25T14:49:35.085Z,97205.17
2019-04-25T14:52:04.718Z,97207.29
2019-04-25T14:55:08.000Z,97207.49
2019-04-25T14:57:37.306Z,97206.05
2019-04-25T15:00:19.844Z,97197.99
2019-04-25T15:02:49.073Z,97194.83
2019-04-25T15:05:18.327Z,97188.82
2019-04-25T15:07:48.303Z,97186.03
2019-04-25T15:10:17.561Z,97176.51
2019-04-25T15:12:47.251Z,97177.12
2019-04-25T15:15:16.852Z,97173.20
2019-04-25T15:17:47.676Z,97173.84
2019-04-25T15:20:21.758Z,97167.55
2019-04-25T15:22:51.778Z,97166.12
2019-04-25T15:25:21.024Z,97173.61
2019-04-25T15:27:50.616Z,97168.16
2019-04-25T15:30:29.322Z,97169.04
2019-04-25T15:32:58.536Z,97173.86
2019-04-25T15:35:41.025Z,97170.88
2019-04-25T15:38:14.549Z,97181.23
2019-04-25T15:41:01.123Z,97175.66
2019-04-25T15:43:52.240Z,97170.82
2019-04-25T15:46:27.662Z,97165.93
2019-04-25T15:48:56.702Z,97166.14
2019-04-25T15:51:26.987Z,97168.42
2019-04-25T15:53:56.225Z,97167.36
2019-04-25T15:56:26.083Z,97157.28
2019-04-25T15:58:55.256Z,97157.84
2019-04-25T16:01:26.403Z,97149.55
2019-04-25T16:03:56.876Z,97153.16
2019-04-25T16:06:27.777Z,97144.85
2019-04-25T16:08:57.034Z,97141.91
2019-04-25T16:11:26.615Z,97144.69
2019-04-25T16:13:55.867Z,97150.41
2019-04-25T16:16:26.775Z,97157.88
2019-04-25T16:18:58.423Z,97152.80
2019-04-25T16:21:27.888Z,97142.77
2019-04-25T16:23:57.110Z,97156.97
2019-04-25T16:26:27.002Z,97155.73
2019-04-25T16:28:57.146Z,97154.20
2019-04-25T16:31:28.097Z,97141.68
2019-04-25T16:33:58.644Z,97158.67
2019-04-25T16:36:27.861Z,97142.84
2019-04-25T16:38:57.111Z,97142.75
2019-04-25T16:41:28.575Z,97142.31
2019-04-25T16:44:02.862Z,97140.63
2019-04-25T16:46:34.145Z,97147.84
2019-04-25T16:49:03.441Z,97139.66
2019-04-25T16:51:33.762Z,97136.92
2019-04-25T16:54:03.032Z,97142.04
2019-04-25T16:56:32.569Z,97141.53
2019-04-25T16:59:02.362Z,97138.35
2019-04-25T17:01:31.735Z,97135.91
2019-04-25T17:04:00.941Z,97131.19
2019-04-25T17:06:32.160Z,97134.63
2019-04-25T17:09:01.421Z,97139.09
2019-04-25T17:11:32.405Z,97143.13
2019-04-25T17:14:16.389Z,97137.20
2019-04-25T17:16:58.409Z,97135.20
2019-04-25T17:19:40.587Z,97132.58
2019-04-25T17:22:09.807Z,97141.55
2019-04-25T17:24:39.286Z,97134.45
2019-04-25T17:27:09.591Z,97134.45
2019-04-25T17:29:40.097Z,97133.17
2019-04-25T17:32:19.351Z,97129.73
2019-04-25T17:35:14.464Z,97128.19
2019-04-25T17:37:51.724Z,97125.23
2019-04-25T17:40:24.890Z,97130.69
2019-04-25T17:42:55.575Z,97128.98
2019-04-25T17:45:29.599Z,97131.25
2019-04-25T17:47:59.630Z,97128.37
2019-04-25T17:50:29.120Z,97130.23
2019-04-25T17:52:58.623Z,97128.20
2019-04-25T17:55:35.090Z,97135.52
2019-04-25T17:58:04.392Z,97130.89
2019-04-25T18:00:39.968Z,97120.52
2019-04-25T18:03:10.949Z,97129.48
2019-04-25T18:05:41.542Z,97129.33
2019-04-25T18:08:11.727Z,97137.97
2019-04-25T18:10:41.931Z,97126.53
2019-04-25T18:13:13.213Z,97130.44
2019-04-25T18:16:01.015Z,97124.12
2019-04-25T18:19:04.464Z,97122.59
2019-04-25T18:21:38.517Z,97126.55
2019-04-25T18:24:28.034Z,97125.59
2019-04-25T18:27:07.839Z,97126.20
2019-04-25T18:29:37.429Z,97128.88
2019-04-25T18:32:07.822Z,97126.13
2019-04-25T18:34:43.152Z,97133.77
2019-04-25T18:37:37.693Z,97129.85
2019-04-25T18:40:25.318Z,97128.21
2019-04-25T18:43:05.629Z,97130.36
2019-04-25T18:45:38.335Z,97129.64
2019-04-25T18:48:08.186Z,97127.33
2019-04-25T18:50:38.545Z,97133.94
2019-04-25T18:53:26.997Z,97133.81
2019-04-25T18:56:11.652Z,97135.49
2019-04-25T18:59:05.628Z,97141.81
2019-04-25T19:02:02.718Z,97142.88
2019-04-25T19:04:39.820Z,97151.19
2019-04-25T19:07:21.929Z,97142.43
2019-04-25T19:09:43.726Z,97145.94
2019-04-25T19:12:12.949Z,97146.07
2019-04-25T19:14:43.147Z,97150.18
2019-04-25T19:17:14.199Z,97145.05
2019-04-25T19:19:44.288Z,97148.17
2019-04-25T19:22:14.433Z,97142.89
2019-04-25T19:24:45.904Z,97142.98
2019-04-25T19:27:23.595Z,97153.90
2019-04-25T19:29:46.235Z,97150.84
2019-04-25T19:32:15.498Z,97153.69
2019-04-25T19:34:44.764Z,97150.57
2019-04-25T19:37:15.489Z,97150.39
2019-04-25T19:39:49.999Z,97155.45
2019-04-25T19:42:28.191Z,97157.44
2019-04-25T19:44:57.471Z,97157.75
2019-04-25T19:47:26.846Z,97160.59
2019-04-25T19:49:56.081Z,97161.28
2019-04-25T19:52:25.338Z,97166.65
2019-04-25T19:54:55.494Z,97163.80
2019-04-25T19:57:25.247Z,97169.28
2019-04-25T19:59:54.490Z,97173.47
2019-04-25T20:02:37.694Z,97175.59
2019-04-25T20:05:15.095Z,97177.83
2019-04-25T20:07:49.527Z,97168.53
2019-04-25T20:10:31.532Z,97170.92
2019-04-25T20:13:00.772Z,97170.99
2019-04-25T20:15:30.309Z,97166.05
2019-04-25T20:17:59.400Z,97166.41
2019-04-25T20:20:31.589Z,97172.43
2019-04-25T20:23:01.574Z,97169.57
2019-04-25T20:25:30.919Z,97174.97
2019-04-25T20:28:00.228Z,97180.52
2019-04-25T20:30:29.461Z,97180.67
2019-04-25T20:32:59.088Z,97183.17
2019-04-25T20:35:29.223Z,97183.48
2019-04-25T20:37:58.839Z,97185.81
2019-04-25T20:40:28.049Z,97186.60
2019-04-25T20:42:57.639Z,97175.75
2019-04-25T20:45:26.867Z,97179.88
2019-04-25T20:47:56.923Z,97183.39
2019-04-25T20:50:26.937Z,97188.35
2019-04-25T20:53:03.326Z,97198.58
2019-04-25T20:55:32.555Z,97191.62
2019-04-25T20:58:04.453Z,97193.17
2019-04-25T21:00:40.513Z,97190.57
2019-04-25T21:03:10.171Z,97197.18
2019-04-25T21:05:39.512Z,97191.27
2019-04-25T21:08:08.772Z,97194.19
2019-04-25T21:10:38.425Z,97195.53
2019-04-25T21:13:11.021Z,97196.25
2019-04-25T21:15:52.096Z,97192.51
2019-04-25T21:18:30.775Z,97199.07
2019-04-25T21:21:01.308Z,97211.66
2019-04-25T21:23:32.380Z,97206.02
2019-04-25T21:26:03.956Z,97213.16
2019-04-25T21:28:34.307Z,97205.50
2019-04-25T21:31:03.565Z,97217.06
2019-04-25T21:33:32.854Z,97215.47
2019-04-25T21:36:02.590Z,97214.83
2019-04-25T21:38:32.233Z,97213.91
2019-04-25T21:41:26.991Z,97215.30
2019-04-25T21:44:02.273Z,97218.33
2019-04-25T21:46:33.147Z,97213.63
2019-04-25T21:49:03.137Z,97215.94
2019-04-25T21:51:33.250Z,97206.08
2019-04-25T21:54:05.429Z,97211.52
2019-04-25T21:56:35.381Z,97207.79
2019-04-25T21:59:04.822Z,97208.33
2019-04-25T22:01:39.847Z,97209.59
2019-04-25T22:04:09.086Z,97207.24
2019-04-25T22:06:39.178Z,97206.61
2019-04-25T22:09:12.915Z,97207.73
2019-04-25T22:11:42.440Z,97206.69
2019-04-25T22:14:12.610Z,97199.48
2019-04-25T22:16:42.011Z,97202.98
2019-04-25T22:19:12.538Z,97213.83
2019-04-25T22:21:43.647Z,97210.27
2019-04-25T22:24:14.711Z,97205.98
2019-04-25T22:26:44.206Z,97201.55
2019-04-25T22:29:15.095Z,97213.83
2019-04-25T22:31:52.131Z,97219.91
2019-04-25T22:34:30.321Z,97227.80
2019-04-25T22:36:59.961Z,97219.78
2019-04-25T22:39:29.459Z,97229.55
2019-04-25T22:41:59.578Z,97218.53
2019-04-25T22:44:30.263Z,97222.87
2019-04-25T22:47:00.821Z,97227.23
2019-04-25T22:49:30.612Z,97230.48
2019-04-25T22:52:02.120Z,97230.81
2019-04-25T22:54:32.721Z,97225.51
2019-04-25T22:57:02.630Z,97225.23
2019-04-25T22:59:32.196Z,97234.07
2019-04-25T23:02:12.013Z,97232.48
2019-04-25T23:05:09.460Z,97240.05
2019-04-25T23:07:35.808Z,97235.45
2019-04-25T23:10:06.469Z,97231.66
2019-04-25T23:12:36.884Z,97240.36
2019-04-25T23:15:06.776Z,97240.11
2019-04-25T23:17:36.189Z,97241.11
2019-04-25T23:20:07.838Z,97240.11
2019-04-25T23:22:37.491Z,97241.70
2019-04-25T23:25:12.306Z,97233.95
2019-04-25T23:27:52.548Z,97234.58
2019-04-25T23:30:24.805Z,97239.14
2019-04-25T23:32:54.043Z,97241.33
2019-04-25T23:35:31.795Z,97237.06
2019-04-25T23:37:54.781Z,97234.69
2019-04-25T23:40:24.028Z,97236.00
2019-04-25T23:42:55.040Z,97240.03
2019-04-25T23:45:24.229Z,97243.27
2019-04-25T23:48:03.702Z,97238.41
2019-04-25T23:50:33.213Z,97232.50
2019-04-25T23:53:02.596Z,97227.17
2019-04-25T23:55:32.173Z,97223.16
2019-04-25T23:58:01.881Z,97228.79
